sensor_id;sensor_type;location;lat;lon;timestamp;P1;durP1;ratioP1;P2;durP2;ratioP2
22983;SDS011;11658;48.908;9.140;2023-06-10T04:05:24;4.97;;;4.57;;
22983;SDS011;11658;48.908;9.140;2023-06-10T04:07:50;4.93;;;4.40;;
22983;SDS011;11658;48.908;9.140;2023-06-10T04:10:15;5.17;;;4.67;;
22983;SDS011;11658;48.908;9.140;2023-06-10T04:12:41;4.73;;;4.33;;
22983;SDS011;11658;48.908;9.140;2023-06-10T04:15:07;5.70;;;5.20;;
22983;SDS011;11658;48.908;9.140;2023-06-10T04:17:33;5.60;;;4.97;;
22983;SDS011;11658;48.908;9.140;2023-06-10T04:19:59;5.87;;;4.97;;
22983;SDS011;11658;48.908;9.140;2023-06-10T04:22:25;5.70;;;5.00;;
22983;SDS011;11658;48.908;9.140;2023-06-10T04:24:51;5.40;;;4.90;;
22983;SDS011;11658;48.908;9.140;2023-06-10T04:27:17;4.87;;;4.47;;
22983;SDS011;11658;48.908;9.140;2023-06-10T04:29:43;5.20;;;4.70;;
22983;SDS011;11658;48.908;9.140;2023-06-10T04:32:08;5.00;;;4.50;;
22983;SDS011;11658;48.908;9.140;2023-06-10T04:34:34;5.00;;;4.50;;
22983;SDS011;11658;48.908;9.140;2023-06-10T04:37:00;5.00;;;4.50;;
22983;SDS011;11658;48.908;9.140;2023-06-10T04:39:25;4.90;;;4.40;;
22983;SDS011;11658;48.908;9.140;2023-06-10T04:41:51;4.53;;;4.13;;
22983;SDS011;11658;48.908;9.140;2023-06-10T04:44:17;5.05;;;4.55;;
22983;SDS011;11658;48.908;9.140;2023-06-10T04:46:43;4.40;;;4.00;;
22983;SDS011;11658;48.908;9.140;2023-06-10T04:49:09;4.75;;;4.35;;
22983;SDS011;11658;48.908;9.140;2023-06-10T04:51:34;5.10;;;4.50;;
22983;SDS011;11658;48.908;9.140;2023-06-10T04:54:00;4.15;;;3.80;;
22983;SDS011;11658;48.908;9.140;2023-06-10T04:56:29;4.28;;;3.97;;
22983;SDS011;11658;48.908;9.140;2023-06-10T04:58:56;4.35;;;3.95;;
22983;SDS011;11658;48.908;9.140;2023-06-10T05:01:22;6.97;;;4.10;;
22983;SDS011;11658;48.908;9.140;2023-06-10T05:03:47;5.00;;;4.38;;
22983;SDS011;11658;48.908;9.140;2023-06-10T05:06:13;5.07;;;4.35;;
22983;SDS011;11658;48.908;9.140;2023-06-10T05:08:39;4.75;;;4.35;;
22983;SDS011;11658;48.908;9.140;2023-06-10T05:11:04;4.68;;;4.28;;
22983;SDS011;11658;48.908;9.140;2023-06-10T05:13:31;4.95;;;4.45;;
22983;SDS011;11658;48.908;9.140;2023-06-10T05:15:56;5.00;;;4.05;;
22983;SDS011;11658;48.908;9.140;2023-06-10T05:18:22;4.38;;;3.85;;
22983;SDS011;11658;48.908;9.140;2023-06-10T05:20:48;4.45;;;3.80;;
22983;SDS011;11658;48.908;9.140;2023-06-10T05:23:14;4.50;;;4.10;;
22983;SDS011;11658;48.908;9.140;2023-06-10T05:25:39;4.53;;;4.13;;
22983;SDS011;11658;48.908;9.140;2023-06-10T05:28:06;5.88;;;4.13;;
22983;SDS011;11658;48.908;9.140;2023-06-10T05:30:35;3.75;;;3.45;;
22983;SDS011;11658;48.908;9.140;2023-06-10T05:33:01;4.28;;;3.90;;
22983;SDS011;11658;48.908;9.140;2023-06-10T05:35:26;4.07;;;3.67;;
22983;SDS011;11658;48.908;9.140;2023-06-10T05:37:52;4.68;;;3.50;;
22983;SDS011;11658;48.908;9.140;2023-06-10T05:40:18;3.75;;;3.45;;
22983;SDS011;11658;48.908;9.140;2023-06-10T05:42:43;3.78;;;3.47;;
22983;SDS011;11658;48.908;9.140;2023-06-10T05:45:09;3.33;;;3.00;;
22983;SDS011;11658;48.908;9.140;2023-06-10T05:47:35;3.65;;;3.30;;
22983;SDS011;11658;48.908;9.140;2023-06-10T05:50:00;4.10;;;3.78;;
22983;SDS011;11658;48.908;9.140;2023-06-10T05:52:27;3.85;;;3.55;;
22983;SDS011;11658;48.908;9.140;2023-06-10T05:54:52;4.35;;;3.70;;
22983;SDS011;11658;48.908;9.140;2023-06-10T05:57:19;3.50;;;3.20;;
22983;SDS011;11658;48.908;9.140;2023-06-10T05:59:45;3.58;;;3.28;;
22983;SDS011;11658;48.908;9.140;2023-06-10T06:02:10;3.60;;;3.30;;
22983;SDS011;11658;48.908;9.140;2023-06-10T06:04:36;3.72;;;3.42;;
22983;SDS011;11658;48.908;9.140;2023-06-10T06:07:01;3.83;;;2.97;;
22983;SDS011;11658;48.908;9.140;2023-06-10T06:09:27;3.85;;;3.28;;
22983;SDS011;11658;48.908;9.140;2023-06-10T06:11:52;3.97;;;3.60;;
22983;SDS011;11658;48.908;9.140;2023-06-10T06:14:18;3.95;;;3.65;;
22983;SDS011;11658;48.908;9.140;2023-06-10T06:16:44;3.13;;;2.92;;
22983;SDS011;11658;48.908;9.140;2023-06-10T06:19:09;4.28;;;3.58;;
22983;SDS011;11658;48.908;9.140;2023-06-10T06:21:36;3.75;;;3.40;;
22983;SDS011;11658;48.908;9.140;2023-06-10T06:24:01;3.90;;;3.60;;
22983;SDS011;11658;48.908;9.140;2023-06-10T06:26:27;4.18;;;3.78;;
22983;SDS011;11658;48.908;9.140;2023-06-10T06:28:53;3.55;;;3.25;;
22983;SDS011;11658;48.908;9.140;2023-06-10T06:31:18;4.00;;;3.60;;
22983;SDS011;11658;48.908;9.140;2023-06-10T06:33:44;3.70;;;3.40;;
22983;SDS011;11658;48.908;9.140;2023-06-10T06:36:09;3.88;;;3.58;;
22983;SDS011;11658;48.908;9.140;2023-06-10T06:38:35;3.83;;;3.53;;
22983;SDS011;11658;48.908;9.140;2023-06-10T06:41:01;3.55;;;3.22;;
22983;SDS011;11658;48.908;9.140;2023-06-10T06:43:28;4.00;;;3.60;;
22983;SDS011;11658;48.908;9.140;2023-06-10T06:45:55;3.80;;;3.30;;
22983;SDS011;11658;48.908;9.140;2023-06-10T06:48:22;5.18;;;4.35;;
22983;SDS011;11658;48.908;9.140;2023-06-10T06:50:47;4.07;;;3.78;;
22983;SDS011;11658;48.908;9.140;2023-06-10T06:53:13;3.95;;;3.65;;
22983;SDS011;11658;48.908;9.140;2023-06-10T06:55:38;3.95;;;3.55;;
22983;SDS011;11658;48.908;9.140;2023-06-10T06:58:04;3.90;;;3.58;;
22983;SDS011;11658;48.908;9.140;2023-06-10T07:00:30;6.28;;;4.03;;
22983;SDS011;11658;48.908;9.140;2023-06-10T07:02:56;4.55;;;4.13;;
22983;SDS011;11658;48.908;9.140;2023-06-10T07:05:22;3.83;;;3.53;;
22983;SDS011;11658;48.908;9.140;2023-06-10T07:07:48;4.50;;;4.10;;
22983;SDS011;11658;48.908;9.140;2023-06-10T07:10:19;4.60;;;4.20;;
22983;SDS011;11658;48.908;9.140;2023-06-10T07:12:48;4.03;;;3.72;;
22983;SDS011;11658;48.908;9.140;2023-06-10T07:15:14;5.13;;;4.70;;
22983;SDS011;11658;48.908;9.140;2023-06-10T07:17:40;4.60;;;4.20;;
22983;SDS011;11658;48.908;9.140;2023-06-10T07:20:05;5.40;;;4.85;;
22983;SDS011;11658;48.908;9.140;2023-06-10T07:22:31;5.10;;;4.57;;
22983;SDS011;11658;48.908;9.140;2023-06-10T07:24:57;4.97;;;4.47;;
22983;SDS011;11658;48.908;9.140;2023-06-10T07:27:23;4.97;;;4.47;;
22983;SDS011;11658;48.908;9.140;2023-06-10T07:29:48;5.15;;;4.72;;
22983;SDS011;11658;48.908;9.140;2023-06-10T07:32:14;5.18;;;4.75;;
22983;SDS011;11658;48.908;9.140;2023-06-10T07:34:39;4.90;;;4.47;;
22983;SDS011;11658;48.908;9.140;2023-06-10T07:37:05;5.97;;;4.97;;
22983;SDS011;11658;48.908;9.140;2023-06-10T07:39:31;4.90;;;4.50;;
22983;SDS011;11658;48.908;9.140;2023-06-10T07:41:56;4.85;;;4.45;;
22983;SDS011;11658;48.908;9.140;2023-06-10T07:44:22;4.93;;;4.53;;
22983;SDS011;11658;48.908;9.140;2023-06-10T07:46:48;5.13;;;4.72;;
22983;SDS011;11658;48.908;9.140;2023-06-10T07:49:14;5.43;;;4.13;;
22983;SDS011;11658;48.908;9.140;2023-06-10T07:51:40;5.70;;;4.30;;
22983;SDS011;11658;48.908;9.140;2023-06-10T07:54:05;4.80;;;4.35;;
22983;SDS011;11658;48.908;9.140;2023-06-10T07:56:31;4.80;;;4.40;;
22983;SDS011;11658;48.908;9.140;2023-06-10T07:58:56;4.47;;;4.07;;
22983;SDS011;11658;48.908;9.140;2023-06-10T08:01:22;5.57;;;4.70;;
22983;SDS011;11658;48.908;9.140;2023-06-10T08:03:49;5.50;;;5.00;;
22983;SDS011;11658;48.908;9.140;2023-06-10T08:06:15;4.85;;;4.45;;
22983;SDS011;11658;48.908;9.140;2023-06-10T08:08:42;4.88;;;4.50;;
22983;SDS011;11658;48.908;9.140;2023-06-10T08:11:08;4.93;;;4.53;;
22983;SDS011;11658;48.908;9.140;2023-06-10T08:13:38;5.13;;;4.63;;
22983;SDS011;11658;48.908;9.140;2023-06-10T08:16:04;5.03;;;4.60;;
22983;SDS011;11658;48.908;9.140;2023-06-10T08:18:30;5.43;;;4.93;;
22983;SDS011;11658;48.908;9.140;2023-06-10T08:20:56;5.40;;;4.90;;
22983;SDS011;11658;48.908;9.140;2023-06-10T08:23:22;6.75;;;4.97;;
22983;SDS011;11658;48.908;9.140;2023-06-10T08:25:47;5.40;;;4.90;;
22983;SDS011;11658;48.908;9.140;2023-06-10T08:28:13;4.72;;;4.32;;
22983;SDS011;11658;48.908;9.140;2023-06-10T08:30:39;6.43;;;4.72;;
22983;SDS011;11658;48.908;9.140;2023-06-10T08:33:05;5.03;;;4.60;;
22983;SDS011;11658;48.908;9.140;2023-06-10T08:35:31;5.13;;;4.55;;
22983;SDS011;11658;48.908;9.140;2023-06-10T08:37:56;5.05;;;4.57;;
22983;SDS011;11658;48.908;9.140;2023-06-10T08:40:22;4.80;;;4.38;;
22983;SDS011;11658;48.908;9.140;2023-06-10T08:43:05;4.70;;;4.30;;
22983;SDS011;11658;48.908;9.140;2023-06-10T08:45:32;4.75;;;4.28;;
22983;SDS011;11658;48.908;9.140;2023-06-10T08:48:00;4.88;;;4.32;;
22983;SDS011;11658;48.908;9.140;2023-06-10T08:50:31;5.28;;;4.78;;
22983;SDS011;11658;48.908;9.140;2023-06-10T08:53:03;4.72;;;4.32;;
22983;SDS011;11658;48.908;9.140;2023-06-10T08:55:31;4.60;;;4.20;;
22983;SDS011;11658;48.908;9.140;2023-06-10T08:58:00;4.80;;;4.30;;
22983;SDS011;11658;48.908;9.140;2023-06-10T09:00:27;5.75;;;4.40;;
22983;SDS011;11658;48.908;9.140;2023-06-10T09:02:53;5.28;;;4.40;;
22983;SDS011;11658;48.908;9.140;2023-06-10T09:05:21;5.47;;;4.18;;
22983;SDS011;11658;48.908;9.140;2023-06-10T09:07:47;4.57;;;3.97;;
22983;SDS011;11658;48.908;9.140;2023-06-10T09:10:13;4.43;;;4.03;;
22983;SDS011;11658;48.908;9.140;2023-06-10T09:12:40;4.60;;;4.20;;
22983;SDS011;11658;48.908;9.140;2023-06-10T09:15:08;4.50;;;4.10;;
22983;SDS011;11658;48.908;9.140;2023-06-10T09:17:34;4.88;;;4.47;;
22983;SDS011;11658;48.908;9.140;2023-06-10T09:20:01;5.70;;;4.80;;
22983;SDS011;11658;48.908;9.140;2023-06-10T09:22:28;5.03;;;4.10;;
22983;SDS011;11658;48.908;9.140;2023-06-10T09:25:03;4.45;;;4.05;;
22983;SDS011;11658;48.908;9.140;2023-06-10T09:27:30;4.60;;;4.20;;
22983;SDS011;11658;48.908;9.140;2023-06-10T09:29:59;5.03;;;3.88;;
22983;SDS011;11658;48.908;9.140;2023-06-10T09:32:24;4.53;;;4.05;;
22983;SDS011;11658;48.908;9.140;2023-06-10T09:34:51;4.40;;;3.95;;
22983;SDS011;11658;48.908;9.140;2023-06-10T09:37:23;4.68;;;4.28;;
22983;SDS011;11658;48.908;9.140;2023-06-10T09:40:05;4.82;;;4.40;;
22983;SDS011;11658;48.908;9.140;2023-06-10T09:42:32;5.53;;;3.85;;
22983;SDS011;11658;48.908;9.140;2023-06-10T09:44:59;4.82;;;4.35;;
22983;SDS011;11658;48.908;9.140;2023-06-10T09:47:25;4.22;;;3.83;;
22983;SDS011;11658;48.908;9.140;2023-06-10T09:49:50;4.40;;;4.00;;
22983;SDS011;11658;48.908;9.140;2023-06-10T09:52:25;4.10;;;3.70;;
22983;SDS011;11658;48.908;9.140;2023-06-10T09:54:52;4.90;;;4.10;;
22983;SDS011;11658;48.908;9.140;2023-06-10T09:57:19;4.82;;;4.05;;
22983;SDS011;11658;48.908;9.140;2023-06-10T09:59:46;4.05;;;3.75;;
22983;SDS011;11658;48.908;9.140;2023-06-10T10:02:15;4.88;;;3.70;;
22983;SDS011;11658;48.908;9.140;2023-06-10T10:04:41;4.13;;;3.83;;
22983;SDS011;11658;48.908;9.140;2023-06-10T10:07:08;5.72;;;3.88;;
22983;SDS011;11658;48.908;9.140;2023-06-10T10:09:35;6.10;;;4.03;;
22983;SDS011;11658;48.908;9.140;2023-06-10T10:12:02;4.30;;;3.78;;
22983;SDS011;11658;48.908;9.140;2023-06-10T10:14:33;4.45;;;3.72;;
22983;SDS011;11658;48.908;9.140;2023-06-10T10:17:00;4.22;;;3.83;;
22983;SDS011;11658;48.908;9.140;2023-06-10T10:19:30;4.38;;;3.72;;
22983;SDS011;11658;48.908;9.140;2023-06-10T10:22:10;4.53;;;4.10;;
22983;SDS011;11658;48.908;9.140;2023-06-10T10:24:49;5.25;;;4.00;;
22983;SDS011;11658;48.908;9.140;2023-06-10T10:27:17;4.63;;;3.72;;
22983;SDS011;11658;48.908;9.140;2023-06-10T10:29:47;5.90;;;4.07;;
22983;SDS011;11658;48.908;9.140;2023-06-10T10:32:16;4.60;;;3.90;;
22983;SDS011;11658;48.908;9.140;2023-06-10T10:37:17;6.68;;;3.97;;
22983;SDS011;11658;48.908;9.140;2023-06-10T10:39:44;3.90;;;3.53;;
22983;SDS011;11658;48.908;9.140;2023-06-10T10:42:10;4.30;;;3.90;;
22983;SDS011;11658;48.908;9.140;2023-06-10T10:44:37;4.75;;;3.67;;
22983;SDS011;11658;48.908;9.140;2023-06-10T10:47:04;4.05;;;3.67;;
22983;SDS011;11658;48.908;9.140;2023-06-10T10:49:33;5.05;;;3.20;;
22983;SDS011;11658;48.908;9.140;2023-06-10T10:52:00;4.35;;;3.65;;
22983;SDS011;11658;48.908;9.140;2023-06-10T10:54:33;3.78;;;3.45;;
22983;SDS011;11658;48.908;9.140;2023-06-10T10:57:16;4.13;;;3.63;;
22983;SDS011;11658;48.908;9.140;2023-06-10T11:05:01;4.00;;;3.70;;
22983;SDS011;11658;48.908;9.140;2023-06-10T11:07:29;3.83;;;3.53;;
22983;SDS011;11658;48.908;9.140;2023-06-10T11:09:59;3.90;;;3.50;;
22983;SDS011;11658;48.908;9.140;2023-06-10T11:12:50;4.85;;;3.63;;
22983;SDS011;11658;48.908;9.140;2023-06-10T11:15:27;3.92;;;3.53;;
22983;SDS011;11658;48.908;9.140;2023-06-10T11:31:20;3.97;;;3.67;;
22983;SDS011;11658;48.908;9.140;2023-06-10T11:34:06;4.30;;;3.50;;
22983;SDS011;11658;48.908;9.140;2023-06-10T11:36:33;3.58;;;3.28;;
22983;SDS011;11658;48.908;9.140;2023-06-10T11:39:03;3.67;;;3.38;;
22983;SDS011;11658;48.908;9.140;2023-06-10T11:41:30;3.97;;;3.50;;
22983;SDS011;11658;48.908;9.140;2023-06-10T11:43:56;3.85;;;3.25;;
22983;SDS011;11658;48.908;9.140;2023-06-10T11:46:25;5.63;;;3.47;;
22983;SDS011;11658;48.908;9.140;2023-06-10T11:48:56;4.03;;;3.50;;
22983;SDS011;11658;48.908;9.140;2023-06-10T11:51:25;4.18;;;3.28;;
22983;SDS011;11658;48.908;9.140;2023-06-10T11:53:52;4.88;;;3.47;;
22983;SDS011;11658;48.908;9.140;2023-06-10T11:56:19;3.17;;;2.88;;
22983;SDS011;11658;48.908;9.140;2023-06-10T11:58:53;4.20;;;3.20;;
22983;SDS011;11658;48.908;9.140;2023-06-10T12:01:23;3.58;;;3.28;;
22983;SDS011;11658;48.908;9.140;2023-06-10T12:04:00;3.90;;;3.20;;
22983;SDS011;11658;48.908;9.140;2023-06-10T12:06:26;4.97;;;3.65;;
22983;SDS011;11658;48.908;9.140;2023-06-10T12:08:53;3.53;;;3.22;;
22983;SDS011;11658;48.908;9.140;2023-06-10T12:11:20;4.63;;;3.20;;
22983;SDS011;11658;48.908;9.140;2023-06-10T12:13:46;3.97;;;3.67;;
22983;SDS011;11658;48.908;9.140;2023-06-10T12:16:14;4.65;;;3.30;;
22983;SDS011;11658;48.908;9.140;2023-06-10T12:18:41;5.03;;;3.25;;
22983;SDS011;11658;48.908;9.140;2023-06-10T12:21:18;4.03;;;2.90;;
22983;SDS011;11658;48.908;9.140;2023-06-10T12:26:38;5.72;;;2.90;;
22983;SDS011;11658;48.908;9.140;2023-06-10T12:29:19;2.90;;;2.70;;
22983;SDS011;11658;48.908;9.140;2023-06-10T12:31:59;3.38;;;2.70;;
22983;SDS011;11658;48.908;9.140;2023-06-10T12:34:35;4.07;;;3.20;;
22983;SDS011;11658;48.908;9.140;2023-06-10T12:37:03;2.75;;;2.47;;
22983;SDS011;11658;48.908;9.140;2023-06-10T12:39:31;3.28;;;3.00;;
22983;SDS011;11658;48.908;9.140;2023-06-10T12:41:59;3.30;;;3.00;;
22983;SDS011;11658;48.908;9.140;2023-06-10T12:44:28;4.18;;;2.67;;
22983;SDS011;11658;48.908;9.140;2023-06-10T12:46:57;4.20;;;2.90;;
22983;SDS011;11658;48.908;9.140;2023-06-10T12:49:23;3.00;;;2.72;;
22983;SDS011;11658;48.908;9.140;2023-06-10T12:51:51;3.00;;;2.70;;
22983;SDS011;11658;48.908;9.140;2023-06-10T12:54:17;3.10;;;2.80;;
22983;SDS011;11658;48.908;9.140;2023-06-10T12:56:42;2.80;;;2.60;;
22983;SDS011;11658;48.908;9.140;2023-06-10T12:59:08;4.55;;;2.92;;
22983;SDS011;11658;48.908;9.140;2023-06-10T13:01:34;5.05;;;3.00;;
22983;SDS011;11658;48.908;9.140;2023-06-10T13:03:59;2.78;;;2.58;;
22983;SDS011;11658;48.908;9.140;2023-06-10T13:06:25;2.97;;;2.78;;
22983;SDS011;11658;48.908;9.140;2023-06-10T13:08:51;2.45;;;2.25;;
22983;SDS011;11658;48.908;9.140;2023-06-10T13:11:17;2.70;;;2.50;;
22983;SDS011;11658;48.908;9.140;2023-06-10T13:13:42;2.88;;;2.50;;
22983;SDS011;11658;48.908;9.140;2023-06-10T13:16:08;4.78;;;2.70;;
22983;SDS011;11658;48.908;9.140;2023-06-10T13:18:33;2.58;;;2.38;;
22983;SDS011;11658;48.908;9.140;2023-06-10T13:21:05;2.58;;;2.38;;
22983;SDS011;11658;48.908;9.140;2023-06-10T13:23:31;2.63;;;2.42;;
22983;SDS011;11658;48.908;9.140;2023-06-10T13:25:57;3.95;;;2.65;;
22983;SDS011;11658;48.908;9.140;2023-06-10T13:28:23;3.95;;;2.85;;
22983;SDS011;11658;48.908;9.140;2023-06-10T13:30:48;2.97;;;2.78;;
22983;SDS011;11658;48.908;9.140;2023-06-10T13:33:15;2.75;;;2.55;;
22983;SDS011;11658;48.908;9.140;2023-06-10T13:35:40;3.38;;;2.90;;
22983;SDS011;11658;48.908;9.140;2023-06-10T13:38:06;3.30;;;3.00;;
22983;SDS011;11658;48.908;9.140;2023-06-10T13:40:32;3.40;;;3.10;;
22983;SDS011;11658;48.908;9.140;2023-06-10T13:42:58;2.72;;;2.53;;
22983;SDS011;11658;48.908;9.140;2023-06-10T13:45:23;2.92;;;2.60;;
22983;SDS011;11658;48.908;9.140;2023-06-10T13:47:49;3.30;;;2.72;;
22983;SDS011;11658;48.908;9.140;2023-06-10T13:50:15;3.20;;;2.90;;
22983;SDS011;11658;48.908;9.140;2023-06-10T13:52:41;2.83;;;2.63;;
22983;SDS011;11658;48.908;9.140;2023-06-10T13:55:07;5.00;;;3.08;;
22983;SDS011;11658;48.908;9.140;2023-06-10T13:57:33;2.90;;;2.58;;
22983;SDS011;11658;48.908;9.140;2023-06-10T13:59:58;2.72;;;2.50;;
22983;SDS011;11658;48.908;9.140;2023-06-10T14:02:24;3.40;;;3.10;;
22983;SDS011;11658;48.908;9.140;2023-06-10T14:04:51;3.10;;;2.53;;
22983;SDS011;11658;48.908;9.140;2023-06-10T14:07:17;3.85;;;3.10;;
22983;SDS011;11658;48.908;9.140;2023-06-10T14:09:42;2.97;;;2.75;;
22983;SDS011;11658;48.908;9.140;2023-06-10T14:12:08;2.65;;;2.45;;
22983;SDS011;11658;48.908;9.140;2023-06-10T14:14:34;2.78;;;2.50;;
22983;SDS011;11658;48.908;9.140;2023-06-10T14:17:01;2.90;;;2.70;;
22983;SDS011;11658;48.908;9.140;2023-06-10T14:19:28;4.32;;;3.00;;
22983;SDS011;11658;48.908;9.140;2023-06-10T14:21:53;2.85;;;2.58;;
22983;SDS011;11658;48.908;9.140;2023-06-10T14:24:20;2.88;;;2.50;;
22983;SDS011;11658;48.908;9.140;2023-06-10T14:26:46;3.28;;;3.08;;
22983;SDS011;11658;48.908;9.140;2023-06-10T14:29:11;3.22;;;2.65;;
22983;SDS011;11658;48.908;9.140;2023-06-10T14:31:39;3.05;;;2.75;;
22983;SDS011;11658;48.908;9.140;2023-06-10T14:34:05;2.78;;;2.50;;
22983;SDS011;11658;48.908;9.140;2023-06-10T14:36:32;3.33;;;2.85;;
22983;SDS011;11658;48.908;9.140;2023-06-10T14:38:58;2.85;;;2.65;;
22983;SDS011;11658;48.908;9.140;2023-06-10T14:41:24;3.22;;;3.03;;
22983;SDS011;11658;48.908;9.140;2023-06-10T14:43:49;2.85;;;2.65;;
22983;SDS011;11658;48.908;9.140;2023-06-10T14:46:15;3.42;;;2.80;;
22983;SDS011;11658;48.908;9.140;2023-06-10T14:48:41;3.35;;;2.75;;
22983;SDS011;11658;48.908;9.140;2023-06-10T14:51:06;3.20;;;2.90;;
22983;SDS011;11658;48.908;9.140;2023-06-10T14:53:32;3.78;;;2.60;;
22983;SDS011;11658;48.908;9.140;2023-06-10T14:55:57;3.15;;;2.83;;
22983;SDS011;11658;48.908;9.140;2023-06-10T14:58:23;2.70;;;2.40;;
22983;SDS011;11658;48.908;9.140;2023-06-10T15:00:48;3.35;;;2.58;;
22983;SDS011;11658;48.908;9.140;2023-06-10T15:03:15;2.50;;;2.30;;
22983;SDS011;11658;48.908;9.140;2023-06-10T15:05:40;3.63;;;2.60;;
22983;SDS011;11658;48.908;9.140;2023-06-10T15:08:06;3.55;;;2.60;;
22983;SDS011;11658;48.908;9.140;2023-06-10T15:10:32;2.70;;;2.50;;
22983;SDS011;11658;48.908;9.140;2023-06-10T15:12:58;2.80;;;2.60;;
22983;SDS011;11658;48.908;9.140;2023-06-10T15:15:24;2.70;;;2.50;;
22983;SDS011;11658;48.908;9.140;2023-06-10T15:17:53;2.90;;;2.70;;
22983;SDS011;11658;48.908;9.140;2023-06-10T15:20:19;2.88;;;2.67;;
22983;SDS011;11658;48.908;9.140;2023-06-10T15:22:45;2.95;;;2.75;;
22983;SDS011;11658;48.908;9.140;2023-06-10T15:25:10;3.05;;;2.75;;
22983;SDS011;11658;48.908;9.140;2023-06-10T15:27:36;3.00;;;2.80;;
22983;SDS011;11658;48.908;9.140;2023-06-10T15:30:02;3.72;;;2.30;;
22983;SDS011;11658;48.908;9.140;2023-06-10T15:32:28;3.00;;;2.80;;
22983;SDS011;11658;48.908;9.140;2023-06-10T15:34:53;3.03;;;2.67;;
22983;SDS011;11658;48.908;9.140;2023-06-10T15:37:19;3.67;;;2.63;;
22983;SDS011;11658;48.908;9.140;2023-06-10T15:39:46;4.05;;;2.63;;
22983;SDS011;11658;48.908;9.140;2023-06-10T15:42:12;3.00;;;2.70;;
22983;SDS011;11658;48.908;9.140;2023-06-10T15:44:37;6.97;;;2.90;;
22983;SDS011;11658;48.908;9.140;2023-06-10T15:47:03;4.95;;;3.47;;
22983;SDS011;11658;48.908;9.140;2023-06-10T15:49:29;5.13;;;3.55;;
22983;SDS011;11658;48.908;9.140;2023-06-10T15:51:55;3.25;;;2.83;;
22983;SDS011;11658;48.908;9.140;2023-06-10T15:54:20;2.78;;;2.50;;
22983;SDS011;11658;48.908;9.140;2023-06-10T15:56:46;3.75;;;2.83;;
22983;SDS011;11658;48.908;9.140;2023-06-10T15:59:11;3.13;;;2.92;;
22983;SDS011;11658;48.908;9.140;2023-06-10T16:01:37;2.80;;;2.60;;
22983;SDS011;11658;48.908;9.140;2023-06-10T16:04:03;2.92;;;2.72;;
22983;SDS011;11658;48.908;9.140;2023-06-10T16:06:28;2.47;;;2.28;;
22983;SDS011;11658;48.908;9.140;2023-06-10T16:08:54;3.13;;;2.83;;
22983;SDS011;11658;48.908;9.140;2023-06-10T16:11:20;3.17;;;2.72;;
22983;SDS011;11658;48.908;9.140;2023-06-10T16:13:46;3.40;;;3.10;;
22983;SDS011;11658;48.908;9.140;2023-06-10T16:16:12;2.70;;;2.50;;
22983;SDS011;11658;48.908;9.140;2023-06-10T16:18:37;3.17;;;2.88;;
22983;SDS011;11658;48.908;9.140;2023-06-10T16:21:03;3.22;;;3.03;;
22983;SDS011;11658;48.908;9.140;2023-06-10T16:23:28;3.05;;;2.83;;
22983;SDS011;11658;48.908;9.140;2023-06-10T16:25:54;4.00;;;3.70;;
22983;SDS011;11658;48.908;9.140;2023-06-10T16:28:20;3.35;;;3.05;;
22983;SDS011;11658;48.908;9.140;2023-06-10T16:30:46;3.53;;;3.03;;
22983;SDS011;11658;48.908;9.140;2023-06-10T16:33:11;4.30;;;3.80;;
22983;SDS011;11658;48.908;9.140;2023-06-10T16:35:37;3.50;;;3.20;;
22983;SDS011;11658;48.908;9.140;2023-06-10T16:38:02;3.85;;;3.45;;
22983;SDS011;11658;48.908;9.140;2023-06-10T16:40:28;4.88;;;4.40;;
22983;SDS011;11658;48.908;9.140;2023-06-10T16:42:54;4.60;;;2.70;;
22983;SDS011;11658;48.908;9.140;2023-06-10T16:45:20;3.85;;;3.05;;
22983;SDS011;11658;48.908;9.140;2023-06-10T16:47:46;4.20;;;3.17;;
22983;SDS011;11658;48.908;9.140;2023-06-10T16:50:11;3.00;;;2.80;;
22983;SDS011;11658;48.908;9.140;2023-06-10T16:52:37;3.17;;;2.88;;
22983;SDS011;11658;48.908;9.140;2023-06-10T16:55:02;4.05;;;3.03;;
22983;SDS011;11658;48.908;9.140;2023-06-10T16:57:28;2.70;;;2.50;;
22983;SDS011;11658;48.908;9.140;2023-06-10T16:59:54;2.75;;;2.55;;
22983;SDS011;11658;48.908;9.140;2023-06-10T17:02:20;2.83;;;2.53;;
22983;SDS011;11658;48.908;9.140;2023-06-10T17:04:45;3.53;;;2.33;;
22983;SDS011;11658;48.908;9.140;2023-06-10T17:07:11;10.52;;;8.68;;
22983;SDS011;11658;48.908;9.140;2023-06-10T17:09:36;2.83;;;2.17;;
22983;SDS011;11658;48.908;9.140;2023-06-10T17:12:02;2.47;;;2.28;;
22983;SDS011;11658;48.908;9.140;2023-06-10T17:14:28;2.35;;;2.15;;
22983;SDS011;11658;48.908;9.140;2023-06-10T17:16:54;2.33;;;2.13;;
22983;SDS011;11658;48.908;9.140;2023-06-10T17:19:19;2.13;;;2.00;;
22983;SDS011;11658;48.908;9.140;2023-06-10T17:21:45;2.10;;;2.00;;
22983;SDS011;11658;48.908;9.140;2023-06-10T17:24:11;2.35;;;2.15;;
22983;SDS011;11658;48.908;9.140;2023-06-10T17:26:37;2.55;;;2.35;;
22983;SDS011;11658;48.908;9.140;2023-06-10T17:29:02;2.50;;;2.30;;
22983;SDS011;11658;48.908;9.140;2023-06-10T17:31:28;2.72;;;2.40;;
22983;SDS011;11658;48.908;9.140;2023-06-10T17:33:54;2.53;;;2.33;;
22983;SDS011;11658;48.908;9.140;2023-06-10T17:36:19;2.60;;;2.40;;
22983;SDS011;11658;48.908;9.140;2023-06-10T17:38:45;3.08;;;2.65;;
22983;SDS011;11658;48.908;9.140;2023-06-10T17:41:11;3.10;;;2.80;;
22983;SDS011;11658;48.908;9.140;2023-06-10T17:43:36;2.90;;;2.70;;
22983;SDS011;11658;48.908;9.140;2023-06-10T17:46:02;2.95;;;2.70;;
22983;SDS011;11658;48.908;9.140;2023-06-10T17:48:27;2.95;;;2.65;;
22983;SDS011;11658;48.908;9.140;2023-06-10T17:50:53;2.85;;;2.65;;
22983;SDS011;11658;48.908;9.140;2023-06-10T17:53:18;3.00;;;2.80;;
22983;SDS011;11658;48.908;9.140;2023-06-10T17:55:44;3.92;;;2.78;;
22983;SDS011;11658;48.908;9.140;2023-06-10T17:58:10;3.42;;;3.10;;
22983;SDS011;11658;48.908;9.140;2023-06-10T18:00:35;3.58;;;3.20;;
22983;SDS011;11658;48.908;9.140;2023-06-10T18:03:01;4.75;;;4.18;;
22983;SDS011;11658;48.908;9.140;2023-06-10T18:05:26;4.05;;;3.70;;
22983;SDS011;11658;48.908;9.140;2023-06-10T18:07:52;5.93;;;5.35;;
22983;SDS011;11658;48.908;9.140;2023-06-10T18:10:19;3.97;;;3.67;;
22983;SDS011;11658;48.908;9.140;2023-06-10T18:12:45;4.22;;;3.25;;
22983;SDS011;11658;48.908;9.140;2023-06-10T18:15:10;4.38;;;3.95;;
22983;SDS011;11658;48.908;9.140;2023-06-10T18:17:36;4.10;;;3.80;;
22983;SDS011;11658;48.908;9.140;2023-06-10T18:20:02;3.78;;;3.47;;
22983;SDS011;11658;48.908;9.140;2023-06-10T18:22:31;4.03;;;3.72;;
22983;SDS011;11658;48.908;9.140;2023-06-10T18:24:59;3.60;;;3.30;;
22983;SDS011;11658;48.908;9.140;2023-06-10T18:27:30;3.72;;;3.42;;
22983;SDS011;11658;48.908;9.140;2023-06-10T18:29:57;3.83;;;3.53;;
22983;SDS011;11658;48.908;9.140;2023-06-10T18:32:22;4.05;;;3.72;;
22983;SDS011;11658;48.908;9.140;2023-06-10T18:34:48;4.10;;;3.70;;
22983;SDS011;11658;48.908;9.140;2023-06-10T18:37:16;3.85;;;3.55;;
22983;SDS011;11658;48.908;9.140;2023-06-10T18:39:41;4.35;;;3.65;;
22983;SDS011;11658;48.908;9.140;2023-06-10T18:42:07;4.38;;;3.97;;
22983;SDS011;11658;48.908;9.140;2023-06-10T18:44:33;3.90;;;3.60;;
22983;SDS011;11658;48.908;9.140;2023-06-10T18:47:00;4.03;;;3.60;;
22983;SDS011;11658;48.908;9.140;2023-06-10T18:49:26;3.97;;;3.35;;
22983;SDS011;11658;48.908;9.140;2023-06-10T18:51:51;3.75;;;3.45;;
22983;SDS011;11658;48.908;9.140;2023-06-10T18:54:17;3.92;;;3.63;;
22983;SDS011;11658;48.908;9.140;2023-06-10T18:56:42;3.80;;;3.50;;
22983;SDS011;11658;48.908;9.140;2023-06-10T18:59:08;3.95;;;3.53;;
22983;SDS011;11658;48.908;9.140;2023-06-10T19:01:34;4.05;;;3.65;;
22983;SDS011;11658;48.908;9.140;2023-06-10T19:04:00;4.05;;;3.40;;
22983;SDS011;11658;48.908;9.140;2023-06-10T19:06:26;3.72;;;3.42;;
22983;SDS011;11658;48.908;9.140;2023-06-10T19:08:51;6.30;;;3.95;;
22983;SDS011;11658;48.908;9.140;2023-06-10T19:11:17;3.70;;;3.40;;
22983;SDS011;11658;48.908;9.140;2023-06-10T19:13:43;3.88;;;3.45;;